METAR Data
IDs: Format: Raw Decoded Include TAF

Data at: 1319 UTC 26 Feb 2021

RKSI 261300Z 05010KT CAVOK 07/M04 Q1025 NOSIG